sensor_id;sensor_type;location;lat;lon;timestamp;P1;durP1;ratioP1;P2;durP2;ratioP2
38226;SDS011;24026;49.446;8.576;2024-03-08T00:01:26;154.27;;;138.38;;
38226;SDS011;24026;49.446;8.576;2024-03-08T00:03:46;154.23;;;138.23;;
38226;SDS011;24026;49.446;8.576;2024-03-08T00:06:07;153.23;;;137.60;;
38226;SDS011;24026;49.446;8.576;2024-03-08T00:08:27;152.10;;;136.48;;
38226;SDS011;24026;49.446;8.576;2024-03-08T00:10:48;153.95;;;138.23;;
38226;SDS011;24026;49.446;8.576;2024-03-08T00:13:09;153.43;;;137.68;;
38226;SDS011;24026;49.446;8.576;2024-03-08T00:15:29;152.55;;;136.75;;
38226;SDS011;24026;49.446;8.576;2024-03-08T00:17:52;149.05;;;133.88;;
38226;SDS011;24026;49.446;8.576;2024-03-08T00:20:13;152.38;;;136.70;;
38226;SDS011;24026;49.446;8.576;2024-03-08T00:22:34;153.98;;;138.18;;
38226;SDS011;24026;49.446;8.576;2024-03-08T00:24:55;152.45;;;136.93;;
38226;SDS011;24026;49.446;8.576;2024-03-08T00:27:16;152.63;;;136.95;;
38226;SDS011;24026;49.446;8.576;2024-03-08T00:29:37;152.40;;;136.77;;
38226;SDS011;24026;49.446;8.576;2024-03-08T00:32:00;153.25;;;137.57;;
38226;SDS011;24026;49.446;8.576;2024-03-08T00:34:21;151.20;;;135.70;;
38226;SDS011;24026;49.446;8.576;2024-03-08T00:36:41;151.20;;;135.55;;
38226;SDS011;24026;49.446;8.576;2024-03-08T00:39:01;151.82;;;136.30;;
38226;SDS011;24026;49.446;8.576;2024-03-08T00:41:26;151.95;;;136.35;;
38226;SDS011;24026;49.446;8.576;2024-03-08T00:43:47;152.18;;;136.52;;
38226;SDS011;24026;49.446;8.576;2024-03-08T00:46:07;151.50;;;136.02;;
38226;SDS011;24026;49.446;8.576;2024-03-08T00:48:28;152.80;;;137.23;;
38226;SDS011;24026;49.446;8.576;2024-03-08T00:50:48;151.40;;;135.85;;
38226;SDS011;24026;49.446;8.576;2024-03-08T00:53:08;152.43;;;136.77;;
38226;SDS011;24026;49.446;8.576;2024-03-08T00:55:31;154.90;;;138.88;;
38226;SDS011;24026;49.446;8.576;2024-03-08T00:57:51;150.77;;;135.43;;
38226;SDS011;24026;49.446;8.576;2024-03-08T01:00:13;150.40;;;134.75;;
38226;SDS011;24026;49.446;8.576;2024-03-08T01:02:34;150.52;;;135.15;;
38226;SDS011;24026;49.446;8.576;2024-03-08T01:04:55;151.63;;;136.15;;
38226;SDS011;24026;49.446;8.576;2024-03-08T01:07:15;149.77;;;134.40;;
38226;SDS011;24026;49.446;8.576;2024-03-08T01:09:36;151.07;;;135.57;;
38226;SDS011;24026;49.446;8.576;2024-03-08T01:11:56;152.35;;;136.52;;
38226;SDS011;24026;49.446;8.576;2024-03-08T01:14:17;150.88;;;135.38;;
38226;SDS011;24026;49.446;8.576;2024-03-08T01:16:37;151.55;;;135.98;;
38226;SDS011;24026;49.446;8.576;2024-03-08T01:18:58;151.00;;;135.43;;
38226;SDS011;24026;49.446;8.576;2024-03-08T01:21:18;152.77;;;136.98;;
38226;SDS011;24026;49.446;8.576;2024-03-08T01:23:39;151.25;;;135.57;;
38226;SDS011;24026;49.446;8.576;2024-03-08T01:25:59;150.23;;;134.98;;
38226;SDS011;24026;49.446;8.576;2024-03-08T01:28:23;150.85;;;135.45;;
38226;SDS011;24026;49.446;8.576;2024-03-08T01:30:44;151.20;;;135.68;;
38226;SDS011;24026;49.446;8.576;2024-03-08T01:33:05;150.35;;;134.95;;
38226;SDS011;24026;49.446;8.576;2024-03-08T01:35:25;149.90;;;134.45;;
38226;SDS011;24026;49.446;8.576;2024-03-08T01:37:47;151.13;;;135.63;;
38226;SDS011;24026;49.446;8.576;2024-03-08T01:40:09;150.18;;;134.77;;
38226;SDS011;24026;49.446;8.576;2024-03-08T01:42:30;149.70;;;134.23;;
38226;SDS011;24026;49.446;8.576;2024-03-08T01:44:50;150.90;;;135.27;;
38226;SDS011;24026;49.446;8.576;2024-03-08T01:47:11;150.07;;;134.65;;
38226;SDS011;24026;49.446;8.576;2024-03-08T01:49:32;150.05;;;134.65;;
38226;SDS011;24026;49.446;8.576;2024-03-08T01:51:53;150.38;;;135.02;;
38226;SDS011;24026;49.446;8.576;2024-03-08T01:54:16;153.40;;;137.38;;
38226;SDS011;24026;49.446;8.576;2024-03-08T01:56:40;149.68;;;134.25;;
38226;SDS011;24026;49.446;8.576;2024-03-08T01:59:00;151.18;;;135.55;;
38226;SDS011;24026;49.446;8.576;2024-03-08T02:01:21;151.50;;;136.00;;
38226;SDS011;24026;49.446;8.576;2024-03-08T02:03:42;149.93;;;134.50;;
38226;SDS011;24026;49.446;8.576;2024-03-08T02:06:04;151.95;;;136.23;;
38226;SDS011;24026;49.446;8.576;2024-03-08T02:08:25;150.85;;;135.43;;
38226;SDS011;24026;49.446;8.576;2024-03-08T02:10:45;149.63;;;134.40;;
38226;SDS011;24026;49.446;8.576;2024-03-08T02:13:06;153.23;;;137.38;;
38226;SDS011;24026;49.446;8.576;2024-03-08T02:15:27;149.18;;;133.63;;
38226;SDS011;24026;49.446;8.576;2024-03-08T02:18:19;149.52;;;134.07;;
38226;SDS011;24026;49.446;8.576;2024-03-08T02:20:39;150.10;;;134.80;;
38226;SDS011;24026;49.446;8.576;2024-03-08T02:23:00;150.05;;;134.63;;
38226;SDS011;24026;49.446;8.576;2024-03-08T02:25:20;150.10;;;134.52;;
38226;SDS011;24026;49.446;8.576;2024-03-08T02:27:41;150.35;;;134.80;;
38226;SDS011;24026;49.446;8.576;2024-03-08T02:30:01;149.63;;;134.20;;
38226;SDS011;24026;49.446;8.576;2024-03-08T02:32:22;150.55;;;134.98;;
38226;SDS011;24026;49.446;8.576;2024-03-08T02:34:43;149.95;;;134.48;;
38226;SDS011;24026;49.446;8.576;2024-03-08T02:37:04;150.32;;;134.88;;
38226;SDS011;24026;49.446;8.576;2024-03-08T02:39:25;152.52;;;136.73;;
38226;SDS011;24026;49.446;8.576;2024-03-08T02:41:45;147.65;;;132.63;;
38226;SDS011;24026;49.446;8.576;2024-03-08T02:44:06;151.88;;;136.23;;
38226;SDS011;24026;49.446;8.576;2024-03-08T02:46:27;148.05;;;132.85;;
38226;SDS011;24026;49.446;8.576;2024-03-08T02:48:47;148.35;;;133.15;;
38226;SDS011;24026;49.446;8.576;2024-03-08T02:51:08;147.50;;;132.13;;
38226;SDS011;24026;49.446;8.576;2024-03-08T02:53:30;147.07;;;131.82;;
38226;SDS011;24026;49.446;8.576;2024-03-08T02:55:51;147.98;;;132.52;;
38226;SDS011;24026;49.446;8.576;2024-03-08T02:58:11;147.00;;;131.77;;
38226;SDS011;24026;49.446;8.576;2024-03-08T03:00:32;148.77;;;133.30;;
38226;SDS011;24026;49.446;8.576;2024-03-08T03:02:52;147.15;;;131.75;;
38226;SDS011;24026;49.446;8.576;2024-03-08T03:05:13;147.15;;;132.00;;
38226;SDS011;24026;49.446;8.576;2024-03-08T03:07:34;147.13;;;131.90;;
38226;SDS011;24026;49.446;8.576;2024-03-08T03:09:58;146.55;;;131.52;;
38226;SDS011;24026;49.446;8.576;2024-03-08T03:12:18;148.00;;;132.55;;
38226;SDS011;24026;49.446;8.576;2024-03-08T03:14:38;146.35;;;131.20;;
38226;SDS011;24026;49.446;8.576;2024-03-08T03:16:59;147.15;;;131.85;;
38226;SDS011;24026;49.446;8.576;2024-03-08T03:19:20;147.90;;;132.52;;
38226;SDS011;24026;49.446;8.576;2024-03-08T03:21:40;146.75;;;131.48;;
38226;SDS011;24026;49.446;8.576;2024-03-08T03:24:03;147.02;;;132.02;;
38226;SDS011;24026;49.446;8.576;2024-03-08T03:26:25;146.02;;;130.93;;
38226;SDS011;24026;49.446;8.576;2024-03-08T03:28:45;145.35;;;130.15;;
38226;SDS011;24026;49.446;8.576;2024-03-08T03:31:07;146.68;;;131.43;;
38226;SDS011;24026;49.446;8.576;2024-03-08T03:33:27;145.50;;;130.38;;
38226;SDS011;24026;49.446;8.576;2024-03-08T03:35:47;146.45;;;131.35;;
38226;SDS011;24026;49.446;8.576;2024-03-08T03:38:08;147.45;;;132.13;;
38226;SDS011;24026;49.446;8.576;2024-03-08T03:40:28;147.13;;;131.88;;
38226;SDS011;24026;49.446;8.576;2024-03-08T03:42:49;147.02;;;131.88;;
38226;SDS011;24026;49.446;8.576;2024-03-08T03:45:09;145.65;;;130.68;;
38226;SDS011;24026;49.446;8.576;2024-03-08T03:47:30;145.38;;;130.27;;
38226;SDS011;24026;49.446;8.576;2024-03-08T03:49:50;146.02;;;130.98;;
38226;SDS011;24026;49.446;8.576;2024-03-08T03:52:11;148.00;;;132.82;;
38226;SDS011;24026;49.446;8.576;2024-03-08T03:54:32;145.55;;;130.27;;
38226;SDS011;24026;49.446;8.576;2024-03-08T03:56:53;145.95;;;130.77;;
38226;SDS011;24026;49.446;8.576;2024-03-08T03:59:14;148.15;;;132.68;;
38226;SDS011;24026;49.446;8.576;2024-03-08T04:01:34;146.40;;;131.20;;
38226;SDS011;24026;49.446;8.576;2024-03-08T04:03:54;147.50;;;132.27;;
38226;SDS011;24026;49.446;8.576;2024-03-08T04:06:15;145.82;;;130.73;;
38226;SDS011;24026;49.446;8.576;2024-03-08T04:08:35;148.18;;;132.68;;
38226;SDS011;24026;49.446;8.576;2024-03-08T04:10:56;144.95;;;129.55;;
38226;SDS011;24026;49.446;8.576;2024-03-08T04:13:16;146.18;;;131.00;;
38226;SDS011;24026;49.446;8.576;2024-03-08T04:15:36;146.98;;;131.80;;
38226;SDS011;24026;49.446;8.576;2024-03-08T04:17:57;145.30;;;130.38;;
38226;SDS011;24026;49.446;8.576;2024-03-08T04:20:20;147.10;;;131.90;;
38226;SDS011;24026;49.446;8.576;2024-03-08T04:22:41;144.07;;;128.95;;
38226;SDS011;24026;49.446;8.576;2024-03-08T04:25:02;145.20;;;130.20;;
38226;SDS011;24026;49.446;8.576;2024-03-08T04:27:23;149.18;;;133.80;;
38226;SDS011;24026;49.446;8.576;2024-03-08T04:29:43;146.73;;;131.52;;
38226;SDS011;24026;49.446;8.576;2024-03-08T04:32:04;144.38;;;129.30;;
38226;SDS011;24026;49.446;8.576;2024-03-08T04:34:26;144.30;;;129.30;;
38226;SDS011;24026;49.446;8.576;2024-03-08T04:36:48;145.98;;;130.82;;
38226;SDS011;24026;49.446;8.576;2024-03-08T04:39:09;145.90;;;130.70;;
38226;SDS011;24026;49.446;8.576;2024-03-08T04:41:33;145.57;;;130.60;;
38226;SDS011;24026;49.446;8.576;2024-03-08T04:43:54;145.10;;;130.07;;
38226;SDS011;24026;49.446;8.576;2024-03-08T04:46:17;145.23;;;130.10;;
38226;SDS011;24026;49.446;8.576;2024-03-08T04:48:38;144.68;;;129.73;;
38226;SDS011;24026;49.446;8.576;2024-03-08T04:50:58;146.18;;;130.98;;
38226;SDS011;24026;49.446;8.576;2024-03-08T04:53:20;145.40;;;130.35;;
38226;SDS011;24026;49.446;8.576;2024-03-08T04:55:40;143.18;;;128.23;;
38226;SDS011;24026;49.446;8.576;2024-03-08T04:58:01;144.82;;;129.75;;
38226;SDS011;24026;49.446;8.576;2024-03-08T05:00:21;146.68;;;131.57;;
38226;SDS011;24026;49.446;8.576;2024-03-08T05:02:41;145.75;;;130.65;;
38226;SDS011;24026;49.446;8.576;2024-03-08T05:05:02;145.30;;;130.10;;
38226;SDS011;24026;49.446;8.576;2024-03-08T05:07:26;145.35;;;130.30;;
38226;SDS011;24026;49.446;8.576;2024-03-08T05:09:46;146.27;;;131.20;;
38226;SDS011;24026;49.446;8.576;2024-03-08T05:12:11;144.88;;;130.02;;
38226;SDS011;24026;49.446;8.576;2024-03-08T05:14:31;146.40;;;131.30;;
38226;SDS011;24026;49.446;8.576;2024-03-08T05:16:52;145.73;;;130.65;;
38226;SDS011;24026;49.446;8.576;2024-03-08T05:19:12;144.65;;;129.55;;
38226;SDS011;24026;49.446;8.576;2024-03-08T05:21:33;146.55;;;131.30;;
38226;SDS011;24026;49.446;8.576;2024-03-08T05:23:53;145.00;;;129.85;;
38226;SDS011;24026;49.446;8.576;2024-03-08T05:26:14;145.48;;;130.23;;
38226;SDS011;24026;49.446;8.576;2024-03-08T05:28:34;145.82;;;130.65;;
38226;SDS011;24026;49.446;8.576;2024-03-08T05:30:54;144.07;;;129.18;;
38226;SDS011;24026;49.446;8.576;2024-03-08T05:33:16;145.30;;;130.10;;
38226;SDS011;24026;49.446;8.576;2024-03-08T05:35:37;143.75;;;128.73;;
38226;SDS011;24026;49.446;8.576;2024-03-08T05:37:57;146.32;;;131.23;;
38226;SDS011;24026;49.446;8.576;2024-03-08T05:40:18;145.40;;;130.13;;
38226;SDS011;24026;49.446;8.576;2024-03-08T05:42:39;144.85;;;129.85;;
38226;SDS011;24026;49.446;8.576;2024-03-08T05:44:59;145.52;;;130.30;;
38226;SDS011;24026;49.446;8.576;2024-03-08T05:47:19;146.82;;;131.60;;
38226;SDS011;24026;49.446;8.576;2024-03-08T05:49:40;144.60;;;129.52;;
38226;SDS011;24026;49.446;8.576;2024-03-08T05:52:00;145.50;;;130.32;;
38226;SDS011;24026;49.446;8.576;2024-03-08T05:54:21;145.35;;;130.23;;
38226;SDS011;24026;49.446;8.576;2024-03-08T05:56:44;142.50;;;127.70;;
38226;SDS011;24026;49.446;8.576;2024-03-08T05:59:04;143.43;;;128.55;;
38226;SDS011;24026;49.446;8.576;2024-03-08T06:01:25;145.13;;;129.95;;
38226;SDS011;24026;49.446;8.576;2024-03-08T06:03:46;144.98;;;129.90;;
38226;SDS011;24026;49.446;8.576;2024-03-08T06:06:08;144.93;;;130.07;;
38226;SDS011;24026;49.446;8.576;2024-03-08T06:08:29;142.77;;;128.15;;
38226;SDS011;24026;49.446;8.576;2024-03-08T06:10:50;143.98;;;129.20;;
38226;SDS011;24026;49.446;8.576;2024-03-08T06:13:12;145.23;;;130.40;;
38226;SDS011;24026;49.446;8.576;2024-03-08T06:15:32;145.15;;;130.40;;
38226;SDS011;24026;49.446;8.576;2024-03-08T06:17:54;144.15;;;129.55;;
38226;SDS011;24026;49.446;8.576;2024-03-08T06:20:15;145.65;;;130.73;;
38226;SDS011;24026;49.446;8.576;2024-03-08T06:22:39;145.48;;;130.70;;
38226;SDS011;24026;49.446;8.576;2024-03-08T06:25:02;142.85;;;128.20;;
38226;SDS011;24026;49.446;8.576;2024-03-08T06:27:23;143.57;;;128.80;;
38226;SDS011;24026;49.446;8.576;2024-03-08T06:29:44;144.80;;;130.20;;
38226;SDS011;24026;49.446;8.576;2024-03-08T06:32:04;152.65;;;136.77;;
38226;SDS011;24026;49.446;8.576;2024-03-08T06:34:25;148.25;;;133.13;;
38226;SDS011;24026;49.446;8.576;2024-03-08T06:36:45;144.15;;;129.30;;
38226;SDS011;24026;49.446;8.576;2024-03-08T06:39:06;144.45;;;129.48;;
38226;SDS011;24026;49.446;8.576;2024-03-08T06:41:29;149.30;;;133.93;;
38226;SDS011;24026;49.446;8.576;2024-03-08T06:43:49;149.27;;;133.88;;
38226;SDS011;24026;49.446;8.576;2024-03-08T06:46:12;150.55;;;135.20;;
38226;SDS011;24026;49.446;8.576;2024-03-08T06:48:32;149.00;;;133.60;;
38226;SDS011;24026;49.446;8.576;2024-03-08T06:50:53;148.85;;;133.52;;
38226;SDS011;24026;49.446;8.576;2024-03-08T06:53:13;148.35;;;133.27;;
38226;SDS011;24026;49.446;8.576;2024-03-08T06:55:34;149.15;;;133.38;;
38226;SDS011;24026;49.446;8.576;2024-03-08T06:57:55;147.40;;;131.95;;
38226;SDS011;24026;49.446;8.576;2024-03-08T07:00:16;149.48;;;134.10;;
38226;SDS011;24026;49.446;8.576;2024-03-08T07:02:38;150.52;;;134.70;;
38226;SDS011;24026;49.446;8.576;2024-03-08T07:05:00;149.85;;;134.27;;
38226;SDS011;24026;49.446;8.576;2024-03-08T07:07:21;150.90;;;135.07;;
38226;SDS011;24026;49.446;8.576;2024-03-08T07:09:44;151.32;;;135.35;;
38226;SDS011;24026;49.446;8.576;2024-03-08T07:12:05;147.25;;;132.30;;
38226;SDS011;24026;49.446;8.576;2024-03-08T07:14:26;150.15;;;134.35;;
38226;SDS011;24026;49.446;8.576;2024-03-08T07:16:46;149.73;;;133.95;;
38226;SDS011;24026;49.446;8.576;2024-03-08T07:19:07;164.80;;;139.45;;
38226;SDS011;24026;49.446;8.576;2024-03-08T07:21:27;246.30;;;151.13;;
38226;SDS011;24026;49.446;8.576;2024-03-08T07:23:49;247.25;;;151.50;;
38226;SDS011;24026;49.446;8.576;2024-03-08T07:26:21;237.73;;;154.32;;
38226;SDS011;24026;49.446;8.576;2024-03-08T07:28:42;239.30;;;149.13;;
38226;SDS011;24026;49.446;8.576;2024-03-08T07:31:03;230.40;;;154.68;;
38226;SDS011;24026;49.446;8.576;2024-03-08T07:33:51;224.32;;;148.88;;
38226;SDS011;24026;49.446;8.576;2024-03-08T07:36:13;203.68;;;144.10;;
38226;SDS011;24026;49.446;8.576;2024-03-08T07:38:34;214.75;;;151.00;;
38226;SDS011;24026;49.446;8.576;2024-03-08T07:40:55;199.07;;;148.18;;
38226;SDS011;24026;49.446;8.576;2024-03-08T07:43:17;190.30;;;146.20;;
38226;SDS011;24026;49.446;8.576;2024-03-08T07:45:37;193.82;;;147.02;;
38226;SDS011;24026;49.446;8.576;2024-03-08T07:47:58;197.27;;;147.68;;
38226;SDS011;24026;49.446;8.576;2024-03-08T07:50:19;190.90;;;143.95;;
38226;SDS011;24026;49.446;8.576;2024-03-08T07:52:39;194.63;;;147.88;;
38226;SDS011;24026;49.446;8.576;2024-03-08T07:55:04;196.45;;;149.82;;
38226;SDS011;24026;49.446;8.576;2024-03-08T07:57:26;194.55;;;147.50;;
38226;SDS011;24026;49.446;8.576;2024-03-08T07:59:46;197.25;;;147.65;;
38226;SDS011;24026;49.446;8.576;2024-03-08T08:02:09;202.27;;;147.30;;
38226;SDS011;24026;49.446;8.576;2024-03-08T08:04:30;185.85;;;149.55;;
38226;SDS011;24026;49.446;8.576;2024-03-08T08:06:51;187.02;;;149.77;;
38226;SDS011;24026;49.446;8.576;2024-03-08T08:09:11;185.73;;;148.98;;
38226;SDS011;24026;49.446;8.576;2024-03-08T08:11:34;181.13;;;147.15;;
38226;SDS011;24026;49.446;8.576;2024-03-08T08:13:55;192.60;;;151.48;;
38226;SDS011;24026;49.446;8.576;2024-03-08T08:16:15;193.63;;;149.70;;
38226;SDS011;24026;49.446;8.576;2024-03-08T08:18:36;186.43;;;146.30;;
38226;SDS011;24026;49.446;8.576;2024-03-08T08:20:57;187.13;;;148.80;;
38226;SDS011;24026;49.446;8.576;2024-03-08T08:23:17;178.98;;;147.57;;
38226;SDS011;24026;49.446;8.576;2024-03-08T08:25:39;176.75;;;147.27;;
38226;SDS011;24026;49.446;8.576;2024-03-08T08:28:00;182.43;;;146.73;;
38226;SDS011;24026;49.446;8.576;2024-03-08T08:30:20;184.77;;;145.73;;
38226;SDS011;24026;49.446;8.576;2024-03-08T08:32:41;171.00;;;147.20;;
38226;SDS011;24026;49.446;8.576;2024-03-08T08:35:07;167.50;;;145.93;;
38226;SDS011;24026;49.446;8.576;2024-03-08T08:37:30;178.25;;;146.45;;
38226;SDS011;24026;49.446;8.576;2024-03-08T08:39:51;170.88;;;147.23;;
38226;SDS011;24026;49.446;8.576;2024-03-08T08:42:12;171.80;;;144.40;;
38226;SDS011;24026;49.446;8.576;2024-03-08T08:44:33;177.15;;;147.90;;
38226;SDS011;24026;49.446;8.576;2024-03-08T08:46:55;170.25;;;144.10;;
38226;SDS011;24026;49.446;8.576;2024-03-08T08:49:15;169.25;;;146.77;;
38226;SDS011;24026;49.446;8.576;2024-03-08T08:51:41;169.88;;;147.10;;
38226;SDS011;24026;49.446;8.576;2024-03-08T08:54:02;169.13;;;143.63;;
38226;SDS011;24026;49.446;8.576;2024-03-08T08:56:22;168.65;;;144.82;;
38226;SDS011;24026;49.446;8.576;2024-03-08T08:58:43;174.73;;;144.90;;
38226;SDS011;24026;49.446;8.576;2024-03-08T09:01:03;172.65;;;143.05;;
38226;SDS011;24026;49.446;8.576;2024-03-08T09:03:25;171.25;;;142.45;;
38226;SDS011;24026;49.446;8.576;2024-03-08T09:05:47;170.00;;;150.75;;
38226;SDS011;24026;49.446;8.576;2024-03-08T09:08:08;166.57;;;144.18;;
38226;SDS011;24026;49.446;8.576;2024-03-08T09:10:29;160.52;;;142.93;;
38226;SDS011;24026;49.446;8.576;2024-03-08T09:12:49;166.27;;;143.80;;
38226;SDS011;24026;49.446;8.576;2024-03-08T09:15:10;182.70;;;160.90;;
38226;SDS011;24026;49.446;8.576;2024-03-08T09:17:33;176.77;;;155.80;;
38226;SDS011;24026;49.446;8.576;2024-03-08T09:19:53;178.85;;;156.93;;
38226;SDS011;24026;49.446;8.576;2024-03-08T09:22:14;177.20;;;156.70;;
38226;SDS011;24026;49.446;8.576;2024-03-08T09:24:35;177.80;;;154.65;;
38226;SDS011;24026;49.446;8.576;2024-03-08T09:26:56;190.32;;;156.95;;
38226;SDS011;24026;49.446;8.576;2024-03-08T09:29:18;179.15;;;156.10;;
38226;SDS011;24026;49.446;8.576;2024-03-08T09:31:39;173.95;;;152.02;;
38226;SDS011;24026;49.446;8.576;2024-03-08T09:37:27;189.10;;;153.30;;
38226;SDS011;24026;49.446;8.576;2024-03-08T09:39:48;192.60;;;150.23;;
38226;SDS011;24026;49.446;8.576;2024-03-08T09:42:08;178.20;;;153.05;;
38226;SDS011;24026;49.446;8.576;2024-03-08T09:44:31;207.50;;;152.52;;
38226;SDS011;24026;49.446;8.576;2024-03-08T09:46:51;189.82;;;149.98;;
38226;SDS011;24026;49.446;8.576;2024-03-08T09:49:13;205.23;;;154.07;;
38226;SDS011;24026;49.446;8.576;2024-03-08T09:51:34;190.93;;;153.70;;
38226;SDS011;24026;49.446;8.576;2024-03-08T09:53:56;200.00;;;156.48;;
38226;SDS011;24026;49.446;8.576;2024-03-08T09:56:18;188.00;;;154.93;;
38226;SDS011;24026;49.446;8.576;2024-03-08T09:58:38;202.90;;;155.23;;
38226;SDS011;24026;49.446;8.576;2024-03-08T10:01:14;190.88;;;151.48;;
38226;SDS011;24026;49.446;8.576;2024-03-08T10:03:34;181.82;;;152.32;;
38226;SDS011;24026;49.446;8.576;2024-03-08T10:05:58;190.32;;;154.50;;
38226;SDS011;24026;49.446;8.576;2024-03-08T10:08:21;186.38;;;150.20;;
38226;SDS011;24026;49.446;8.576;2024-03-08T10:10:42;198.82;;;150.23;;
38226;SDS011;24026;49.446;8.576;2024-03-08T10:13:06;175.88;;;149.02;;
38226;SDS011;24026;49.446;8.576;2024-03-08T10:15:27;180.65;;;148.45;;
38226;SDS011;24026;49.446;8.576;2024-03-08T10:17:53;186.35;;;149.43;;
38226;SDS011;24026;49.446;8.576;2024-03-08T10:20:14;179.15;;;148.82;;
38226;SDS011;24026;49.446;8.576;2024-03-08T10:22:38;181.20;;;149.63;;
38226;SDS011;24026;49.446;8.576;2024-03-08T10:24:58;185.32;;;149.43;;
38226;SDS011;24026;49.446;8.576;2024-03-08T10:27:20;181.90;;;147.80;;
38226;SDS011;24026;49.446;8.576;2024-03-08T10:29:41;179.75;;;148.50;;
38226;SDS011;24026;49.446;8.576;2024-03-08T10:32:04;181.68;;;149.02;;
38226;SDS011;24026;49.446;8.576;2024-03-08T10:34:27;171.93;;;147.27;;
38226;SDS011;24026;49.446;8.576;2024-03-08T10:36:50;169.30;;;146.90;;
38226;SDS011;24026;49.446;8.576;2024-03-08T10:39:22;184.70;;;148.45;;
38226;SDS011;24026;49.446;8.576;2024-03-08T10:41:44;171.63;;;149.25;;
38226;SDS011;24026;49.446;8.576;2024-03-08T10:46:53;172.38;;;150.73;;
38226;SDS011;24026;49.446;8.576;2024-03-08T10:49:26;180.45;;;151.52;;
38226;SDS011;24026;49.446;8.576;2024-03-08T10:51:59;175.90;;;150.45;;
38226;SDS011;24026;49.446;8.576;2024-03-08T10:54:19;176.30;;;153.30;;
38226;SDS011;24026;49.446;8.576;2024-03-08T10:56:41;168.18;;;149.48;;
38226;SDS011;24026;49.446;8.576;2024-03-08T10:59:01;170.38;;;152.10;;
38226;SDS011;24026;49.446;8.576;2024-03-08T11:01:24;175.15;;;154.20;;
38226;SDS011;24026;49.446;8.576;2024-03-08T11:03:46;170.60;;;151.93;;
38226;SDS011;24026;49.446;8.576;2024-03-08T11:06:09;181.32;;;154.63;;
38226;SDS011;24026;49.446;8.576;2024-03-08T11:08:38;178.75;;;155.75;;
38226;SDS011;24026;49.446;8.576;2024-03-08T11:10:59;169.68;;;151.02;;
38226;SDS011;24026;49.446;8.576;2024-03-08T11:13:32;171.60;;;152.48;;
38226;SDS011;24026;49.446;8.576;2024-03-08T11:16:09;165.60;;;147.38;;
38226;SDS011;24026;49.446;8.576;2024-03-08T11:18:35;176.93;;;151.18;;
38226;SDS011;24026;49.446;8.576;2024-03-08T11:20:57;175.27;;;154.57;;
38226;SDS011;24026;49.446;8.576;2024-03-08T11:23:18;177.05;;;157.70;;
38226;SDS011;24026;49.446;8.576;2024-03-08T11:25:42;189.43;;;163.05;;
38226;SDS011;24026;49.446;8.576;2024-03-08T11:28:08;181.45;;;159.80;;
38226;SDS011;24026;49.446;8.576;2024-03-08T11:33:19;187.90;;;161.20;;
38226;SDS011;24026;49.446;8.576;2024-03-08T11:35:39;180.25;;;160.45;;
38226;SDS011;24026;49.446;8.576;2024-03-08T11:38:02;183.20;;;160.23;;
38226;SDS011;24026;49.446;8.576;2024-03-08T11:40:32;181.35;;;161.48;;
38226;SDS011;24026;49.446;8.576;2024-03-08T11:42:53;184.38;;;161.13;;
38226;SDS011;24026;49.446;8.576;2024-03-08T11:45:16;187.48;;;160.95;;
38226;SDS011;24026;49.446;8.576;2024-03-08T11:47:37;179.30;;;157.80;;
38226;SDS011;24026;49.446;8.576;2024-03-08T11:50:00;184.98;;;161.38;;
38226;SDS011;24026;49.446;8.576;2024-03-08T11:52:24;184.43;;;161.18;;
38226;SDS011;24026;49.446;8.576;2024-03-08T11:55:11;179.07;;;159.52;;
38226;SDS011;24026;49.446;8.576;2024-03-08T11:57:49;177.82;;;158.13;;
38226;SDS011;24026;49.446;8.576;2024-03-08T12:00:16;179.55;;;160.30;;
38226;SDS011;24026;49.446;8.576;2024-03-08T12:02:46;186.93;;;166.20;;
38226;SDS011;24026;49.446;8.576;2024-03-08T12:05:10;177.30;;;158.83;;
38226;SDS011;24026;49.446;8.576;2024-03-08T12:07:36;178.13;;;159.13;;
38226;SDS011;24026;49.446;8.576;2024-03-08T12:12:41;175.05;;;156.48;;
38226;SDS011;24026;49.446;8.576;2024-03-08T12:15:03;176.82;;;157.80;;
38226;SDS011;24026;49.446;8.576;2024-03-08T12:17:24;177.25;;;158.60;;
38226;SDS011;24026;49.446;8.576;2024-03-08T12:19:48;177.30;;;158.55;;
38226;SDS011;24026;49.446;8.576;2024-03-08T12:22:08;179.73;;;160.70;;
38226;SDS011;24026;49.446;8.576;2024-03-08T12:24:30;174.98;;;156.45;;
38226;SDS011;24026;49.446;8.576;2024-03-08T12:26:51;175.10;;;156.35;;
38226;SDS011;24026;49.446;8.576;2024-03-08T12:29:22;175.80;;;157.40;;
38226;SDS011;24026;49.446;8.576;2024-03-08T12:31:45;176.02;;;158.13;;
38226;SDS011;24026;49.446;8.576;2024-03-08T12:34:07;172.65;;;154.75;;
38226;SDS011;24026;49.446;8.576;2024-03-08T12:36:29;172.43;;;154.20;;
38226;SDS011;24026;49.446;8.576;2024-03-08T12:38:50;174.20;;;155.88;;
38226;SDS011;24026;49.446;8.576;2024-03-08T12:41:15;170.98;;;153.30;;
38226;SDS011;24026;49.446;8.576;2024-03-08T12:43:37;171.55;;;153.18;;
38226;SDS011;24026;49.446;8.576;2024-03-08T12:45:57;170.43;;;152.30;;
38226;SDS011;24026;49.446;8.576;2024-03-08T12:48:18;167.45;;;150.23;;
38226;SDS011;24026;49.446;8.576;2024-03-08T12:50:41;168.02;;;150.48;;
38226;SDS011;24026;49.446;8.576;2024-03-08T12:53:05;166.07;;;149.13;;
38226;SDS011;24026;49.446;8.576;2024-03-08T12:55:26;167.18;;;150.00;;
38226;SDS011;24026;49.446;8.576;2024-03-08T12:57:47;163.32;;;146.32;;
38226;SDS011;24026;49.446;8.576;2024-03-08T13:00:09;165.95;;;148.43;;
38226;SDS011;24026;49.446;8.576;2024-03-08T13:02:33;164.63;;;147.73;;
38226;SDS011;24026;49.446;8.576;2024-03-08T13:04:53;165.77;;;148.80;;
38226;SDS011;24026;49.446;8.576;2024-03-08T13:07:17;164.63;;;148.00;;
38226;SDS011;24026;49.446;8.576;2024-03-08T13:09:38;165.73;;;148.73;;
38226;SDS011;24026;49.446;8.576;2024-03-08T13:11:59;163.05;;;146.32;;
38226;SDS011;24026;49.446;8.576;2024-03-08T13:14:21;165.55;;;148.55;;
38226;SDS011;24026;49.446;8.576;2024-03-08T13:16:42;164.95;;;148.45;;
38226;SDS011;24026;49.446;8.576;2024-03-08T13:19:06;169.85;;;152.63;;
38226;SDS011;24026;49.446;8.576;2024-03-08T13:21:26;170.57;;;153.18;;
38226;SDS011;24026;49.446;8.576;2024-03-08T13:23:47;168.30;;;151.57;;
38226;SDS011;24026;49.446;8.576;2024-03-08T13:26:09;170.05;;;153.00;;
38226;SDS011;24026;49.446;8.576;2024-03-08T13:28:36;168.97;;;152.00;;
38226;SDS011;24026;49.446;8.576;2024-03-08T13:31:00;169.88;;;152.55;;
38226;SDS011;24026;49.446;8.576;2024-03-08T13:33:21;173.32;;;155.88;;
38226;SDS011;24026;49.446;8.576;2024-03-08T13:35:42;169.75;;;152.35;;
38226;SDS011;24026;49.446;8.576;2024-03-08T13:38:03;168.55;;;151.40;;